Time;durP1;ratioP1;P1;durP2;ratioP2;P2;SDS_P1;SDS_P2;PMS_P1;PMS_P2;Temp;Humidity;BMP_temperature;BMP_pressure;BME280_temperature;BME280_humidity;BME280_pressure;Samples;Min_cycle;Max_cycle;Signal;HPM_P1;HPM_P2
2022/08/15 00:00:35;;;;;;;10.90;9.80;;;;;;;23.89;54.72;100202.38;5017633;28;20037;-73
2022/08/15 00:03:03;;;;;;;11.20;10.10;;;;;;;23.82;54.85;100200.63;4996278;28;20169;-73
2022/08/15 00:05:33;;;;;;;11.25;10.15;;;;;;;23.82;54.74;100187.38;5009577;28;20033;-73
2022/08/15 00:07:59;;;;;;;10.90;9.80;;;;;;;23.82;54.99;100182.09;5008810;28;20091;-72
2022/08/15 00:10:25;;;;;;;10.98;9.88;;;;;;;23.87;54.97;100191.22;5012458;28;20461;-73
2022/08/15 00:12:51;;;;;;;11.07;10.07;;;;;;;23.79;54.79;100179.09;5018105;28;20029;-73
2022/08/15 00:15:19;;;;;;;10.05;9.05;;;;;;;23.72;54.69;100188.97;5016159;28;20032;-73
2022/08/15 00:17:47;;;;;;;11.65;9.80;;;;;;;23.79;54.67;100190.47;5016289;28;20468;-73
2022/08/15 00:20:13;;;;;;;10.82;9.82;;;;;;;23.77;54.76;100181.97;5026316;28;20032;-73
2022/08/15 00:22:48;;;;;;;12.05;10.07;;;;;;;23.63;55.18;100185.03;5026852;28;20029;-74
2022/08/15 00:25:14;;;;;;;10.70;9.70;;;;;;;23.68;55.02;100175.38;5009506;28;20033;-73
2022/08/15 00:27:40;;;;;;;11.25;10.23;;;;;;;23.54;54.77;100181.88;5014002;28;20036;-73
2022/08/15 00:30:06;;;;;;;10.95;9.95;;;;;;;23.48;55.50;100173.00;5030753;28;20108;-72
2022/08/15 00:32:33;;;;;;;11.55;10.35;;;;;;;23.46;56.19;100184.88;5017880;28;20044;-73
2022/08/15 00:34:58;;;;;;;10.82;9.73;;;;;;;23.44;56.30;100181.63;5018192;28;20466;-73
2022/08/15 00:37:24;;;;;;;10.82;9.82;;;;;;;23.46;56.02;100179.56;5022781;28;20040;-72
2022/08/15 00:39:49;;;;;;;11.32;10.20;;;;;;;23.44;56.31;100182.41;5040338;28;20021;-74
2022/08/15 00:42:20;;;;;;;11.15;10.07;;;;;;;23.35;56.50;100178.50;5006256;28;20036;-73
2022/08/15 00:44:46;;;;;;;10.95;9.90;;;;;;;23.37;56.67;100191.50;5015379;28;20030;-72
2022/08/15 00:47:18;;;;;;;10.98;9.98;;;;;;;23.40;56.73;100185.72;5033815;28;20044;-73
2022/08/15 00:49:44;;;;;;;11.25;10.15;;;;;;;23.38;56.96;100193.09;5003433;28;20119;-73
2022/08/15 00:52:14;;;;;;;11.70;10.70;;;;;;;23.40;57.17;100191.03;5023265;28;20037;-73
2022/08/15 00:54:46;;;;;;;10.90;9.73;;;;;;;23.37;57.28;100180.91;5017340;28;20044;-72
2022/08/15 00:57:18;;;;;;;10.75;9.70;;;;;;;23.48;56.91;100178.28;5008571;28;20474;-73
2022/08/15 00:59:51;;;;;;;17.02;10.88;;;;;;;23.46;56.30;100174.28;5018370;28;20071;-73
2022/08/15 01:02:19;;;;;;;11.15;10.05;;;;;;;23.35;57.36;100188.28;5023926;28;20026;-73
2022/08/15 01:04:45;;;;;;;10.80;9.77;;;;;;;23.43;57.26;100187.94;5019417;28;20070;-73
2022/08/15 01:07:11;;;;;;;11.10;10.10;;;;;;;23.37;57.09;100175.63;5014739;28;20022;-73
2022/08/15 01:09:37;;;;;;;11.68;10.65;;;;;;;23.25;57.63;100178.22;5013119;28;20501;-76
2022/08/15 01:12:16;;;;;;;10.95;9.95;;;;;;;23.19;58.39;100179.91;5011933;28;20362;-73
2022/08/15 01:14:47;;;;;;;11.88;10.88;;;;;;;23.27;57.87;100174.31;5015675;28;20125;-74
2022/08/15 01:17:13;;;;;;;11.15;10.02;;;;;;;23.25;57.96;100179.03;5014867;28;20034;-73
2022/08/15 01:19:46;;;;;;;11.75;10.65;;;;;;;23.27;57.84;100179.59;5031359;28;20096;-72
2022/08/15 01:22:27;;;;;;;11.95;10.88;;;;;;;23.26;57.54;100172.69;5028528;28;20033;-73
2022/08/15 01:24:57;;;;;;;12.00;10.90;;;;;;;23.26;58.02;100179.81;5024811;28;20041;-73
2022/08/15 01:27:25;;;;;;;11.75;10.65;;;;;;;23.16;58.37;100180.34;5008009;28;20040;-73
2022/08/15 01:29:53;;;;;;;11.93;10.82;;;;;;;23.22;57.74;100179.47;5008484;28;20057;-72
2022/08/15 01:32:19;;;;;;;11.50;10.50;;;;;;;23.26;57.76;100183.28;5018382;28;20021;-73
2022/08/15 01:34:44;;;;;;;10.60;9.60;;;;;;;23.32;57.36;100185.03;5013841;28;20583;-73
2022/08/15 01:37:10;;;;;;;11.95;10.85;;;;;;;23.16;57.59;100180.34;5027003;28;20377;-73
2022/08/15 01:39:43;;;;;;;11.93;10.90;;;;;;;23.15;57.80;100176.09;5013143;28;20033;-72
2022/08/15 01:42:34;;;;;;;12.95;11.80;;;;;;;23.12;57.37;100171.28;5017510;28;20078;-73
2022/08/15 01:45:15;;;;;;;12.85;11.75;;;;;;;22.78;59.60;100177.97;5012481;28;20043;-72
2022/08/15 01:48:00;;;;;;;16.48;14.95;;;;;;;22.76;58.92;100187.94;5013293;28;20064;-73
2022/08/15 01:50:30;;;;;;;18.38;16.65;;;;;;;22.80;59.75;100187.28;5016521;28;20030;-73
2022/08/15 01:53:16;;;;;;;18.35;16.65;;;;;;;22.84;59.18;100173.63;5024493;28;20029;-72
2022/08/15 01:55:41;;;;;;;17.35;15.95;;;;;;;22.76;59.72;100161.50;5025751;28;20030;-73
2022/08/15 01:58:07;;;;;;;18.05;16.45;;;;;;;22.62;60.43;100168.78;5008291;28;20037;-73
2022/08/15 02:00:33;;;;;;;18.33;16.83;;;;;;;22.58;60.52;100169.44;5006223;28;20030;-73
2022/08/15 02:03:00;;;;;;;18.20;16.60;;;;;;;22.58;61.24;100167.59;5019443;28;20465;-73
2022/08/15 02:05:26;;;;;;;17.97;16.40;;;;;;;22.60;60.71;100165.56;5014395;28;20057;-73
2022/08/15 02:07:52;;;;;;;17.88;16.40;;;;;;;22.52;61.41;100168.47;5016653;28;20621;-73
2022/08/15 02:10:17;;;;;;;19.35;17.65;;;;;;;22.63;61.00;100159.81;5019018;28;20557;-73
2022/08/15 02:12:43;;;;;;;17.52;16.10;;;;;;;22.57;61.48;100155.41;5016603;28;20029;-73
2022/08/15 02:15:15;;;;;;;17.65;16.08;;;;;;;22.53;61.85;100155.03;5008893;28;20446;-73
2022/08/15 02:17:41;;;;;;;18.83;17.23;;;;;;;22.56;62.06;100148.50;5016875;28;20030;-73
2022/08/15 02:20:09;;;;;;;18.35;16.75;;;;;;;22.44;63.43;100151.06;5018091;28;20025;-72
2022/08/15 02:22:35;;;;;;;18.17;16.60;;;;;;;22.38;63.63;100141.38;5018494;28;20463;-72
2022/08/15 02:25:01;;;;;;;18.80;17.10;;;;;;;22.34;64.16;100140.19;5014204;28;20540;-72
2022/08/15 02:27:31;;;;;;;19.13;17.45;;;;;;;22.22;64.77;100137.47;5027541;28;20072;-73
2022/08/15 02:29:56;;;;;;;18.52;17.02;;;;;;;22.26;64.89;100138.66;5039445;28;20385;-74
2022/08/15 02:32:22;;;;;;;18.35;16.83;;;;;;;22.40;63.95;100134.03;5012088;28;20060;-73
2022/08/15 02:34:47;;;;;;;17.98;16.58;;;;;;;22.38;64.09;100135.28;5021738;28;20069;-73
2022/08/15 02:37:18;;;;;;;17.75;16.17;;;;;;;22.36;64.76;100138.13;4996345;28;20038;-72
2022/08/15 02:39:48;;;;;;;17.52;15.90;;;;;;;22.46;64.58;100143.72;5014406;28;20844;-73
2022/08/15 02:42:15;;;;;;;17.63;15.93;;;;;;;22.27;65.38;100144.75;5031232;28;20029;-74
2022/08/15 02:44:42;;;;;;;17.13;15.60;;;;;;;22.17;65.39;100145.22;5030149;28;20022;-72
2022/08/15 02:47:08;;;;;;;16.88;15.48;;;;;;;22.24;65.83;100151.25;5003630;28;20200;-73
2022/08/15 02:49:34;;;;;;;16.60;15.20;;;;;;;22.38;64.71;100151.16;5036882;28;20103;-73
2022/08/15 02:52:00;;;;;;;17.25;15.65;;;;;;;22.48;63.55;100172.56;5040316;28;20479;-73
2022/08/15 02:54:27;;;;;;;17.42;16.02;;;;;;;22.50;63.25;100159.97;5040513;28;20026;-73
2022/08/15 02:56:54;;;;;;;17.80;16.40;;;;;;;22.41;63.92;100161.25;5033881;28;20037;-73
2022/08/15 02:59:20;;;;;;;18.53;16.93;;;;;;;22.53;63.07;100159.50;5031071;28;20033;-73
2022/08/15 03:01:46;;;;;;;18.83;17.25;;;;;;;22.23;64.38;100165.50;5034057;28;20034;-73
2022/08/15 03:04:16;;;;;;;18.83;17.10;;;;;;;22.16;65.15;100170.03;5024415;28;20040;-72
2022/08/15 03:06:45;;;;;;;20.80;19.02;;;;;;;22.33;63.17;100153.63;5018777;28;20029;-73
2022/08/15 03:09:12;;;;;;;23.42;21.42;;;;;;;22.06;64.26;100169.69;5025463;28;20045;-73
2022/08/15 03:11:40;;;;;;;24.55;22.50;;;;;;;22.01;64.38;100156.31;5009019;28;20049;-73
2022/08/15 03:14:07;;;;;;;25.80;23.65;;;;;;;22.04;63.66;100155.91;5023233;28;20140;-73
2022/08/15 03:16:36;;;;;;;25.90;23.70;;;;;;;21.94;63.22;100155.56;5031415;28;20064;-73
2022/08/15 03:19:02;;;;;;;24.15;22.25;;;;;;;21.82;62.91;100141.47;5026384;28;20060;-73
2022/08/15 03:21:28;;;;;;;24.00;22.10;;;;;;;21.94;62.28;100147.66;5011142;28;20037;-73
2022/08/15 03:23:53;;;;;;;24.20;22.15;;;;;;;21.84;62.54;100149.97;5026277;28;20029;-72
2022/08/15 03:26:21;;;;;;;24.33;22.33;;;;;;;21.79;62.69;100147.16;5031321;28;20082;-73
2022/08/15 03:28:47;;;;;;;23.05;21.15;;;;;;;21.80;62.33;100144.31;5021946;28;20033;-73
2022/08/15 03:31:13;;;;;;;22.45;20.50;;;;;;;21.79;62.44;100147.16;5035501;28;20040;-73
2022/08/15 03:33:41;;;;;;;23.38;21.48;;;;;;;21.71;62.95;100151.69;5026832;28;20026;-73
2022/08/15 03:36:07;;;;;;;23.20;21.40;;;;;;;21.67;62.63;100144.41;5019230;28;20052;-73
2022/08/15 03:38:33;;;;;;;21.70;19.83;;;;;;;21.56;62.38;100143.25;5015794;28;20347;-74
2022/08/15 03:40:59;;;;;;;22.25;20.15;;;;;;;21.55;63.06;100148.75;5025771;28;20461;-72
2022/08/15 03:43:28;;;;;;;21.20;19.40;;;;;;;21.49;62.73;100145.13;5020350;28;20097;-72
2022/08/15 03:46:03;;;;;;;19.67;17.90;;;;;;;21.57;61.83;100158.09;5026126;28;20086;-72
2022/08/15 03:48:35;;;;;;;17.60;16.00;;;;;;;21.44;61.70;100140.50;5017425;28;20032;-73
2022/08/15 03:51:01;;;;;;;16.92;15.43;;;;;;;21.48;61.41;100146.97;5017515;28;20470;-73
2022/08/15 03:53:30;;;;;;;16.17;14.68;;;;;;;21.42;61.13;100158.38;5014640;28;20084;-74
2022/08/15 03:55:57;;;;;;;14.15;12.82;;;;;;;21.47;60.96;100157.75;5045967;28;20029;-73
2022/08/15 03:58:23;;;;;;;14.50;13.03;;;;;;;21.40;60.57;100160.44;5015530;28;20029;-72
2022/08/15 04:00:48;;;;;;;12.68;11.38;;;;;;;21.28;60.45;100151.53;5016400;28;20339;-74
2022/08/15 04:03:23;;;;;;;11.88;10.73;;;;;;;21.30;60.39;100154.81;5021327;28;20033;-73
2022/08/15 04:05:53;;;;;;;10.90;9.93;;;;;;;21.28;60.46;100158.66;5010100;28;20018;-72
2022/08/15 04:08:20;;;;;;;11.05;9.93;;;;;;;21.20;60.70;100160.50;5019139;28;20077;-72
2022/08/15 04:10:51;;;;;;;10.88;9.75;;;;;;;21.27;60.63;100164.91;5016657;28;20104;-72
2022/08/15 04:13:24;;;;;;;10.75;9.75;;;;;;;21.29;60.45;100168.19;5023935;28;20132;-72
2022/08/15 04:15:54;;;;;;;10.80;9.80;;;;;;;21.19;60.35;100163.34;5018584;28;20025;-72
2022/08/15 04:18:20;;;;;;;10.68;9.32;;;;;;;21.09;60.63;100169.06;5010599;28;20048;-73
2022/08/15 04:20:46;;;;;;;9.77;8.77;;;;;;;21.04;59.89;100171.50;5012369;28;20021;-73
2022/08/15 04:23:11;;;;;;;10.70;9.18;;;;;;;21.12;60.00;100167.84;5020150;28;20037;-73
2022/08/15 04:25:39;;;;;;;9.85;8.88;;;;;;;21.04;60.10;100176.78;5026825;28;20025;-73
2022/08/15 04:28:05;;;;;;;9.95;8.77;;;;;;;21.03;60.31;100172.53;5034948;28;20029;-72
2022/08/15 04:30:39;;;;;;;9.68;8.77;;;;;;;21.00;60.90;100175.59;5041287;28;20060;-73
2022/08/15 04:33:09;;;;;;;10.30;8.70;;;;;;;21.10;60.32;100175.94;5035104;28;20033;-72
2022/08/15 04:35:35;;;;;;;9.05;8.15;;;;;;;21.04;60.56;100176.78;5039507;28;20497;-72
2022/08/15 04:38:01;;;;;;;10.68;8.30;;;;;;;20.91;60.38;100161.84;5034533;28;20037;-73
2022/08/15 04:40:28;;;;;;;9.48;8.45;;;;;;;20.95;60.63;100178.06;5045797;28;20068;-72
2022/08/15 04:42:54;;;;;;;10.63;7.57;;;;;;;21.12;60.13;100189.75;5028619;28;20033;-73
2022/08/15 04:45:23;;;;;;;9.93;8.45;;;;;;;20.93;61.00;100195.88;5039159;28;20021;-74
2022/08/15 04:47:49;;;;;;;11.63;9.00;;;;;;;20.97;60.41;100191.84;5034734;28;20456;-72
2022/08/15 04:50:14;;;;;;;10.02;9.02;;;;;;;20.82;60.59;100200.00;5031690;28;20523;-73
2022/08/15 04:52:51;;;;;;;10.20;9.07;;;;;;;20.84;60.47;100194.53;5027403;28;20057;-73
2022/08/15 04:55:19;;;;;;;9.55;8.60;;;;;;;20.64;60.51;100198.03;5042735;28;20498;-73
2022/08/15 04:57:46;;;;;;;9.63;8.73;;;;;;;20.67;60.42;100197.59;5018156;28;20030;-75
2022/08/15 05:00:16;;;;;;;12.02;8.40;;;;;;;20.58;60.34;100198.81;5021063;28;20099;-73
2022/08/15 05:02:41;;;;;;;9.93;7.65;;;;;;;20.61;59.93;100187.88;5026938;28;20493;-73
2022/08/15 05:05:09;;;;;;;9.75;7.88;;;;;;;20.52;59.38;100190.94;5025604;28;20530;-72
2022/08/15 05:07:34;;;;;;;8.90;7.85;;;;;;;20.67;59.48;100196.78;5025538;28;20033;-73
2022/08/15 05:10:01;;;;;;;9.95;7.43;;;;;;;20.66;59.24;100190.72;5012379;28;20382;-76
2022/08/15 05:12:28;;;;;;;7.47;6.70;;;;;;;20.58;58.98;100188.28;5013300;28;20029;-74
2022/08/15 05:14:53;;;;;;;10.00;7.35;;;;;;;20.50;59.17;100195.63;5008962;28;20030;-72
2022/08/15 05:17:18;;;;;;;14.73;7.00;;;;;;;20.54;59.14;100186.28;5024048;28;20039;-72
2022/08/15 05:19:44;;;;;;;8.70;6.60;;;;;;;20.57;59.12;100186.66;5025837;28;20496;-72
2022/08/15 05:22:09;;;;;;;8.57;6.60;;;;;;;20.64;58.73;100186.66;4996107;28;20069;-74
2022/08/15 05:24:36;;;;;;;11.70;6.30;;;;;;;20.59;58.45;100195.19;5023706;28;20044;-73
2022/08/15 05:27:02;;;;;;;7.75;6.20;;;;;;;20.49;58.25;100194.00;5037133;28;20473;-73
2022/08/15 05:29:27;;;;;;;7.72;6.38;;;;;;;20.59;58.08;100200.47;5008789;28;20033;-73
2022/08/15 05:31:53;;;;;;;10.00;6.38;;;;;;;20.45;58.04;100185.66;5017437;28;20037;-73
2022/08/15 05:34:19;;;;;;;7.22;5.82;;;;;;;20.52;58.45;100194.38;5024968;28;20024;-73
2022/08/15 05:36:49;;;;;;;10.20;6.40;;;;;;;20.57;57.57;100202.47;5035680;28;20044;-73
2022/08/15 05:39:23;;;;;;;9.20;5.82;;;;;;;20.61;57.85;100185.25;5011703;28;20047;-72
2022/08/15 05:42:16;;;;;;;7.90;5.10;;;;;;;20.69;58.07;100190.28;5018301;28;20057;-72
2022/08/15 05:45:08;;;;;;;7.03;5.32;;;;;;;20.82;57.79;100199.19;5016003;28;20059;-73
2022/08/15 05:47:43;;;;;;;8.82;5.97;;;;;;;20.83;57.96;100206.91;5025461;28;20361;-73
2022/08/15 05:50:22;;;;;;;7.85;5.57;;;;;;;20.94;57.91;100200.19;5033702;28;20454;-73
2022/08/15 05:53:02;;;;;;;7.55;5.53;;;;;;;20.99;57.94;100204.78;5037756;28;20036;-72
2022/08/15 05:55:47;;;;;;;7.97;5.55;;;;;;;21.16;57.11;100221.78;5027340;28;20059;-72
2022/08/15 05:58:31;;;;;;;9.20;5.40;;;;;;;21.17;57.46;100226.84;5014043;28;20401;-73
2022/08/15 06:01:01;;;;;;;8.18;5.15;;;;;;;21.27;57.36;100236.13;5020045;28;20457;-73
2022/08/15 06:03:28;;;;;;;7.15;5.53;;;;;;;21.31;57.46;100229.47;5020278;28;20396;-73
2022/08/15 06:06:04;;;;;;;8.27;5.10;;;;;;;21.44;57.19;100237.31;5024949;28;20516;-72
2022/08/15 06:08:34;;;;;;;10.50;5.85;;;;;;;21.38;56.66;100231.03;5024840;28;20053;-73
2022/08/15 06:11:15;;;;;;;9.15;5.97;;;;;;;21.49;56.91;100237.47;5022139;28;20175;-73
2022/08/15 06:13:46;;;;;;;8.68;5.63;;;;;;;21.50;57.13;100233.81;5025987;28;20040;-73
2022/08/15 06:16:28;;;;;;;8.10;5.78;;;;;;;21.62;56.83;100242.72;5019184;28;20021;-72
2022/08/15 06:18:56;;;;;;;7.80;5.65;;;;;;;21.70;57.07;100239.81;5021296;28;20466;-72
2022/08/15 06:21:30;;;;;;;7.72;6.10;;;;;;;21.72;56.72;100237.75;5011314;28;20060;-72
2022/08/15 06:24:13;;;;;;;7.50;5.53;;;;;;;21.82;56.86;100233.84;5015500;28;20494;-72
2022/08/15 06:26:53;;;;;;;8.23;5.63;;;;;;;21.81;56.36;100240.16;5013958;28;20033;-72
2022/08/15 06:29:40;;;;;;;6.60;5.10;;;;;;;21.98;56.02;100233.34;5014067;28;20026;-72
2022/08/15 06:32:11;;;;;;;8.55;4.80;;;;;;;21.95;56.07;100241.69;5013668;28;20485;-74
2022/08/15 06:35:18;;;;;;;7.25;4.93;;;;;;;22.04;56.25;100244.88;5012763;28;20117;-73
2022/08/15 06:37:55;;;;;;;6.28;4.65;;;;;;;22.00;56.41;100244.50;5013929;28;20045;-72
2022/08/15 06:40:29;;;;;;;7.10;4.90;;;;;;;22.03;56.27;100262.56;5008521;28;20496;-73
2022/08/15 06:42:55;;;;;;;8.23;5.13;;;;;;;22.04;55.72;100250.16;5018558;28;20454;-73
2022/08/15 06:45:33;;;;;;;7.72;5.30;;;;;;;22.04;55.47;100261.53;5010991;28;20648;-72
2022/08/15 06:48:03;;;;;;;8.00;5.88;;;;;;;22.00;55.21;100255.06;5023317;28;20029;-72
2022/08/15 06:50:36;;;;;;;8.50;5.22;;;;;;;21.99;55.37;100258.72;5028743;28;20036;-73
2022/08/15 06:53:11;;;;;;;8.13;5.93;;;;;;;22.00;55.51;100249.78;5013105;28;20034;-73
2022/08/15 06:55:51;;;;;;;11.27;6.32;;;;;;;22.14;55.56;100259.25;5021044;28;20129;-73
2022/08/15 06:58:23;;;;;;;8.07;6.10;;;;;;;22.04;55.28;100252.81;5006848;28;20071;-72
2022/08/15 07:01:02;;;;;;;8.45;6.40;;;;;;;22.19;55.29;100248.03;5010255;28;20034;-72
2022/08/15 07:03:47;;;;;;;11.05;6.60;;;;;;;22.16;55.45;100238.72;5006919;28;20076;-73
2022/08/15 07:06:17;;;;;;;8.77;6.55;;;;;;;22.17;56.20;100250.09;5023821;28;20017;-73
2022/08/15 07:08:57;;;;;;;9.07;6.15;;;;;;;22.26;55.88;100244.31;5013019;28;20054;-73
2022/08/15 07:11:32;;;;;;;8.38;6.43;;;;;;;22.22;56.66;100240.50;5004613;28;20029;-72
2022/08/15 07:14:06;;;;;;;10.50;6.47;;;;;;;22.29;56.68;100236.97;5012728;28;20034;-72
2022/08/15 07:16:44;;;;;;;10.63;7.32;;;;;;;22.30;56.18;100249.97;5017123;28;20021;-73
2022/08/15 07:19:10;;;;;;;10.88;7.32;;;;;;;22.27;56.42;100239.84;5010719;28;20049;-72
2022/08/15 07:21:36;;;;;;;9.18;6.88;;;;;;;22.36;56.20;100248.28;5011073;28;20030;-74
2022/08/15 07:24:31;;;;;;;12.07;6.82;;;;;;;22.49;56.13;100249.00;5008332;28;20037;-73
2022/08/15 07:26:59;;;;;;;9.23;7.05;;;;;;;22.43;56.45;100249.06;4996023;28;20048;-72
2022/08/15 07:29:32;;;;;;;10.43;6.80;;;;;;;22.56;55.81;100264.81;5016237;28;20025;-73
2022/08/15 07:32:08;;;;;;;9.73;7.35;;;;;;;22.54;56.30;100258.94;5005194;28;20017;-73
2022/08/15 07:34:35;;;;;;;10.30;7.80;;;;;;;22.51;56.07;100246.94;5012841;28;20046;-73
2022/08/15 07:37:06;;;;;;;9.97;7.37;;;;;;;22.57;55.93;100250.56;5013758;28;20033;-73
2022/08/15 07:39:38;;;;;;;9.85;7.63;;;;;;;22.59;56.35;100259.06;5011960;28;20827;-73
2022/08/15 07:42:10;;;;;;;9.82;7.45;;;;;;;22.70;55.57;100245.13;5021030;28;20069;-73
2022/08/15 07:44:36;;;;;;;9.77;7.40;;;;;;;22.83;55.41;100248.69;5013711;28;20501;-73
2022/08/15 07:47:11;;;;;;;10.45;8.00;;;;;;;22.74;55.94;100248.97;5017564;28;20057;-72
2022/08/15 07:49:38;;;;;;;11.50;7.68;;;;;;;22.72;56.38;100245.75;5014691;28;20029;-73
2022/08/15 07:52:20;;;;;;;12.30;7.22;;;;;;;22.95;55.62;100253.06;5007512;28;20038;-72
2022/08/15 07:54:48;;;;;;;9.88;7.40;;;;;;;22.95;55.76;100252.25;5012122;28;20033;-73
2022/08/15 07:57:19;;;;;;;;;;;;;;;23.11;55.53;100256.94;5007677;28;20068;-73
2022/08/15 08:00:10;;;;;;;10.63;7.38;;;;;;;22.99;56.21;100253.41;5014545;28;19940;-73
2022/08/15 08:02:57;;;;;;;10.18;8.15;;;;;;;22.91;57.21;100269.56;5023627;28;20076;-73
2022/08/15 08:05:26;;;;;;;10.00;7.68;;;;;;;23.01;56.76;100267.22;5016290;28;20458;-73
2022/08/15 08:07:54;;;;;;;10.93;7.72;;;;;;;23.06;56.67;100270.03;5036077;28;20424;-73
2022/08/15 08:10:40;;;;;;;9.45;7.60;;;;;;;23.11;56.62;100267.53;5007624;28;20072;-72
2022/08/15 08:13:12;;;;;;;11.70;7.38;;;;;;;23.15;56.56;100267.88;5027006;28;20551;-73
2022/08/15 08:15:49;;;;;;;11.40;7.45;;;;;;;23.09;57.47;100277.50;5016085;28;20388;-74
2022/08/15 08:18:24;;;;;;;13.57;7.50;;;;;;;23.09;56.90;100266.94;5032248;28;20037;-73
2022/08/15 08:20:53;;;;;;;10.07;7.32;;;;;;;23.10;56.77;100276.47;5030581;28;20040;-73
2022/08/15 08:23:40;;;;;;;8.70;6.38;;;;;;;23.19;56.83;100277.81;5021601;28;20053;-73
2022/08/15 08:26:09;;;;;;;9.25;6.78;;;;;;;23.23;56.29;100275.53;5002782;28;20382;-73
2022/08/15 08:28:45;;;;;;;8.52;7.10;;;;;;;23.37;56.02;100282.28;5022389;28;20029;-74
2022/08/15 08:31:21;;;;;;;9.70;7.28;;;;;;;23.31;57.10;100268.09;5013507;28;20017;-74
2022/08/15 08:34:13;;;;;;;9.68;7.88;;;;;;;23.45;56.67;100278.50;5016726;28;20029;-74
2022/08/15 08:37:04;;;;;;;9.88;7.53;;;;;;;23.42;56.52;100279.78;5020075;28;20500;-74
2022/08/15 08:39:46;;;;;;;11.85;8.00;;;;;;;23.58;56.22;100278.34;5010765;28;20029;-74
2022/08/15 08:42:36;;;;;;;8.57;7.68;;;;;;;23.58;56.95;100281.00;5018027;28;20626;-74
2022/08/15 08:45:10;;;;;;;11.57;8.70;;;;;;;23.78;56.49;100289.50;5023579;28;20586;-74
2022/08/15 08:48:04;;;;;;;10.90;9.20;;;;;;;23.93;56.61;100290.94;5014815;28;20029;-74
2022/08/15 08:51:05;;;;;;;11.13;9.50;;;;;;;24.01;56.08;100285.31;5013566;28;20025;-74
2022/08/15 08:53:54;;;;;;;11.30;10.10;;;;;;;24.16;56.24;100288.34;5008883;28;20037;-73
2022/08/15 08:56:27;;;;;;;11.38;9.07;;;;;;;24.30;57.01;100292.41;5025553;28;20029;-74
2022/08/15 08:59:19;;;;;;;12.32;9.40;;;;;;;24.55;56.12;100291.44;5027182;28;20120;-74
2022/08/15 09:01:51;;;;;;;13.63;11.20;;;;;;;24.57;55.77;100286.69;5003292;28;20030;-74
2022/08/15 09:04:23;;;;;;;10.98;9.90;;;;;;;24.68;56.39;100288.53;5020411;28;20037;-72
2022/08/15 09:06:51;;;;;;;12.05;10.38;;;;;;;24.63;55.92;100289.22;5021934;28;20935;-75
2022/08/15 09:09:30;;;;;;;;;;;;;;;24.77;55.24;100287.13;5031002;28;20046;-76
2022/08/15 09:12:04;;;;;;;12.13;10.85;;;;;;;24.69;55.02;100284.03;5025498;28;20711;-76
2022/08/15 09:14:36;;;;;;;14.10;11.20;;;;;;;24.64;55.08;100287.38;5031364;28;20083;-77
2022/08/15 09:17:07;;;;;;;14.27;10.95;;;;;;;24.56;56.05;100290.38;5009151;28;20029;-76
2022/08/15 09:19:42;;;;;;;13.35;11.73;;;;;;;24.38;56.47;100298.44;5008954;28;20034;-77
2022/08/15 09:22:08;;;;;;;14.23;12.38;;;;;;;24.29;56.52;100285.47;5018346;28;20053;-77
2022/08/15 09:24:33;;;;;;;13.93;11.65;;;;;;;24.49;56.34;100289.72;5039417;28;20052;-78
2022/08/15 09:27:19;;;;;;;15.15;12.48;;;;;;;24.43;56.82;100286.13;5026678;28;20025;-77
2022/08/15 09:30:01;;;;;;;14.50;12.20;;;;;;;24.39;57.31;100286.81;5029938;28;20032;-77
2022/08/15 09:32:44;;;;;;;13.75;12.55;;;;;;;24.27;57.99;100284.13;5031979;28;20385;-77
2022/08/15 09:35:22;;;;;;;12.90;11.70;;;;;;;24.54;56.92;100287.16;5042462;28;20403;-76
2022/08/15 09:38:15;;;;;;;16.63;12.98;;;;;;;24.42;57.24;100299.59;5023142;28;20030;-77
2022/08/15 09:41:20;;;;;;;13.93;12.52;;;;;;;24.49;56.85;100290.50;5008849;28;20064;-77
2022/08/15 09:43:46;;;;;;;13.10;11.70;;;;;;;24.53;56.76;100301.44;5028882;28;20014;-77
2022/08/15 09:46:26;;;;;;;14.07;12.02;;;;;;;24.34;57.84;100298.91;5029869;28;20029;-77
2022/08/15 09:49:24;;;;;;;13.23;11.88;;;;;;;24.32;58.42;100294.84;5012510;28;20029;-76
2022/08/15 09:52:09;;;;;;;13.55;11.77;;;;;;;24.18;59.13;100293.41;5023209;28;20084;-76
2022/08/15 09:54:47;;;;;;;12.93;11.73;;;;;;;24.23;59.00;100285.59;5022844;28;20029;-76
2022/08/15 09:57:22;;;;;;;14.40;12.00;;;;;;;24.19;59.70;100298.47;5014502;28;20033;-77
2022/08/15 09:59:55;;;;;;;22.77;12.48;;;;;;;24.16;59.32;100296.31;5004644;28;20547;-75
2022/08/15 10:02:23;;;;;;;14.23;11.70;;;;;;;23.98;59.58;100299.03;5033026;28;20031;-75
2022/08/15 10:04:49;;;;;;;;;;;;;;;24.35;57.85;100305.81;5026827;28;20033;-76
2022/08/15 10:07:14;;;;;;;12.85;10.07;;;;;;;24.29;58.69;100293.44;5029625;28;19924;-75
2022/08/15 10:10:10;;;;;;;12.60;11.25;;;;;;;24.21;58.73;100314.19;5027638;28;20059;-75
2022/08/15 10:12:37;;;;;;;16.00;11.77;;;;;;;24.14;60.25;100303.66;5006311;28;20025;-76
2022/08/15 10:15:45;;;;;;;13.18;11.73;;;;;;;24.13;60.34;100304.69;5029594;28;20488;-76
2022/08/15 10:18:22;;;;;;;13.40;12.02;;;;;;;24.01;61.60;100303.84;5000145;28;20095;-77
2022/08/15 10:20:56;;;;;;;14.10;12.30;;;;;;;23.84;62.50;100315.09;5030136;28;20040;-75
2022/08/15 10:23:40;;;;;;;13.73;12.35;;;;;;;23.74;62.49;100312.19;5021255;28;20107;-76
2022/08/15 10:26:20;;;;;;;15.07;12.15;;;;;;;23.87;62.32;100315.69;5020681;28;20071;-76
2022/08/15 10:29:24;;;;;;;14.90;12.88;;;;;;;23.73;62.38;100313.19;5007216;28;20097;-75
2022/08/15 10:31:53;;;;;;;14.25;12.48;;;;;;;23.58;63.09;100310.13;5014664;28;20045;-76
2022/08/15 10:35:05;;;;;;;13.93;12.07;;;;;;;23.87;61.12;100318.34;5025418;28;20025;-76
2022/08/15 10:37:36;;;;;;;15.20;12.48;;;;;;;23.57;62.06;100313.81;5013416;28;20079;-76
2022/08/15 10:40:18;;;;;;;14.38;12.98;;;;;;;23.47;61.95;100313.53;5025091;28;20055;-76
2022/08/15 10:43:02;;;;;;;15.13;12.75;;;;;;;23.53;61.93;100307.34;5013397;28;20115;-76
2022/08/15 10:45:53;;;;;;;13.65;12.05;;;;;;;23.57;61.89;100313.81;5007879;28;20063;-76
2022/08/15 10:48:30;;;;;;;13.48;12.07;;;;;;;23.60;62.05;100318.63;5019525;28;20033;-76
2022/08/15 10:51:34;;;;;;;14.25;12.73;;;;;;;23.65;62.17;100316.16;5001218;28;20083;-76
2022/08/15 10:54:42;;;;;;;13.98;12.50;;;;;;;23.60;61.76;100318.63;5007084;28;20030;-76
2022/08/15 10:57:10;;;;;;;14.07;12.38;;;;;;;23.58;62.12;100305.63;4977309;28;20053;-77
2022/08/15 10:59:41;;;;;;;13.45;12.05;;;;;;;23.50;62.46;100307.75;5021571;28;20022;-76
2022/08/15 11:02:24;;;;;;;14.07;12.52;;;;;;;23.62;62.11;100316.59;5024555;28;20064;-76
2022/08/15 11:04:49;;;;;;;13.00;11.70;;;;;;;23.82;61.46;100317.16;5042991;28;20028;-76
2022/08/15 11:07:17;;;;;;;13.90;12.50;;;;;;;23.92;60.55;100331.72;5035991;28;20020;-76
2022/08/15 11:09:50;;;;;;;;;;;;;;;24.09;60.16;100332.69;5035098;28;20094;-76
2022/08/15 11:12:19;;;;;;;12.80;11.52;;;;;;;23.99;60.27;100325.28;5024355;28;19959;-76
2022/08/15 11:14:52;;;;;;;13.40;11.55;;;;;;;24.13;60.34;100333.03;5013502;28;20056;-77
2022/08/15 11:17:23;;;;;;;12.85;11.48;;;;;;;23.96;62.03;100332.88;5015746;28;20021;-76
2022/08/15 11:19:51;;;;;;;12.55;10.63;;;;;;;23.95;60.55;100328.59;5019120;28;20025;-76
2022/08/15 11:22:37;;;;;;;;;;;;;;;24.25;59.68;100332.03;5022722;28;20025;-76
2022/08/15 11:25:07;;;;;;;10.55;9.38;;;;;;;23.98;59.08;100328.16;5009134;28;20337;-76
2022/08/15 11:27:32;;;;;;;12.85;9.15;;;;;;;24.04;59.39;100324.63;5017762;28;20026;-76
2022/08/15 11:29:58;;;;;;;10.88;8.63;;;;;;;24.18;58.69;100336.63;5010872;28;20060;-76
2022/08/15 11:32:27;;;;;;;11.48;9.30;;;;;;;24.03;58.97;100341.53;5036608;28;20033;-76
2022/08/15 11:34:53;;;;;;;12.10;9.43;;;;;;;24.02;59.29;100342.56;5017425;28;20454;-76
2022/08/15 11:37:21;;;;;;;11.98;9.90;;;;;;;23.99;59.87;100337.72;5009964;28;20089;-76
2022/08/15 11:39:52;;;;;;;11.07;9.00;;;;;;;24.03;59.12;100333.59;5026311;28;20051;-76
2022/08/15 11:42:20;;;;;;;11.73;9.23;;;;;;;24.04;60.12;100335.22;5024339;28;20072;-75